Terminal Aerodrome Forecast
Issued by NWS Denver/Boulder, CO

Home | Current Version | Previous Version | Text Only | Print | Product List | Glossary On
Versions: 1 2 3 4 5 6 7 8 9 10 11 12 13 14 15 16 17 18 19 20 21 22 23 24 25 26 27 28 29 30 31 32 33 34 35 36 37 38 39 40 41 42 43 44 45 46 47 48 49 50
000
FTUS45 KBOU 022042 AAA
TAFDEN
TAF AMD
KDEN 022042Z 0221/0324 36005KT 5SM HZ FEW020 SCT200
     FM022200 36006KT P6SM FEW200
     FM030000 33006KT P6SM BKN200
     FM030400 24012KT P6SM SCT080 BKN200
     FM031000 01015KT P6SM VCSH SCT020 BKN060
     FM031500 01012KT 4SM -SN BR SCT008 OVC020
      TEMPO 0316/0320 2SM -SN OVC008=

USA.gov is the U.S. government's official web portal to all federal, state and local government web resources and services.